Stations météo

Publicité
Grenoble le Versoud, France (7487): Température de l'air & dewpoint: 19.06.2018 21:00:00 - 25.06.2018 21:00:00 (CEST)Grenoble le Versoud, France (7487): Vitesse du vent & gusts: 19.06.2018 21:00:00 - 25.06.2018 21:00:00 (CEST)Grenoble le Versoud, France (7487): Direction du vent: 19.06.2018 21:00:00 - 25.06.2018 21:00:00 (CEST)Grenoble le Versoud, France (7487): reduced air pressure: 19.06.2018 21:00:00 - 25.06.2018 21:00:00 (CEST)Grenoble le Versoud, France (7487): Quantités de précipitations: 19.06.2018 21:00:00 - 25.06.2018 21:00:00 (CEST)
Date & Time tt [°C] td [°C] ff [km/h] ff [knt] fx [km/h] fx [knt] dd ppp [hPa] rr [mm]
25.06.2018 21:00:00 23,8 11,5 5 3 22 12 ENE 1016,2 0,0
25.06.2018 20:00:00 26,7 12,0 13 7 26 14 NNE 1015,4 -
25.06.2018 19:00:00 27,6 11,6 15 8 26 14 NNE 1014,8 0,0
25.06.2018 18:00:00 27,7 11,3 18 10 26 14 NNE 1014,8 0,0
25.06.2018 17:00:00 27,9 12,7 16 9 28 15 NNE 1015,0 0,0
25.06.2018 16:00:00 27,2 12,0 18 10 29 16 NNE 1015,1 0,0
25.06.2018 15:00:00 27,0 12,6 21 11 28 15 NNE 1015,1 0,0
25.06.2018 14:00:00 26,0 12,1 18 10 28 15 NE 1015,3 -
25.06.2018 13:00:00 24,8 11,7 15 8 29 16 NE 1015,8 0,0
25.06.2018 12:00:00 23,4 11,8 16 9 26 14 NNE 1016,4 0,0
25.06.2018 11:00:00 22,3 10,8 13 7 22 12 NNE 1016,5 0,0
25.06.2018 10:00:00 20,7 11,6 4 2 13 7 E 1017,3 0,0
25.06.2018 09:00:00 18,5 11,3 2 1 8 4 S 1017,5 0,0
25.06.2018 08:00:00 16,8 11,3 2 1 5 3 SW 1017,7 -
25.06.2018 07:00:00 14,0 12,0 0 0 4 2 N 1018,0 0,0
25.06.2018 06:00:00 12,8 10,9 0 0 4 2 N 1017,8 0,0
25.06.2018 05:00:00 13,3 11,5 4 2 5 3 W 1017,7 0,0
25.06.2018 04:00:00 13,9 11,9 0 0 5 3 N 1017,7 0,0
25.06.2018 03:00:00 14,2 11,5 2 1 5 3 WNW 1017,6 0,0
25.06.2018 02:00:00 15,4 12,5 0 0 5 3 N 1017,5 -
25.06.2018 01:00:00 16,4 12,6 0 0 5 3 N 1017,2 0,0
25.06.2018 00:00:00 17,9 12,6 0 0 4 2 N 1016,7 0,0
24.06.2018 23:00:00 19,0 13,0 2 1 9 5 WNW 1016,5 0,0
24.06.2018 22:00:00 21,7 11,7 11 6 29 16 N 1015,9 0,0
24.06.2018 21:00:00 23,1 11,8 16 9 39 21 N 1015,2 0,0
24.06.2018 20:00:00 24,7 12,0 15 8 28 15 N 1014,7 -
24.06.2018 19:00:00 25,9 12,0 13 7 24 13 NNW 1014,4 0,0
24.06.2018 18:00:00 26,6 11,1 16 9 24 13 NNE 1014,5 0,0
24.06.2018 17:00:00 26,7 11,2 13 7 21 11 NNE 1014,8 0,0
24.06.2018 16:00:00 25,9 10,1 5 3 13 7 NNE 1015,5 0,0
24.06.2018 15:00:00 25,1 10,5 4 2 13 7 ENE 1016,2 0,0
24.06.2018 14:00:00 23,9 10,6 5 3 21 11 N 1017,1 -
24.06.2018 13:00:00 22,9 10,3 4 2 24 13 NNE 1017,8 0,0
24.06.2018 12:00:00 21,4 10,2 13 7 21 11 NE 1018,3 0,0
24.06.2018 11:00:00 21,1 9,3 4 2 11 6 W 1018,5 0,0
24.06.2018 10:00:00 19,6 10,0 4 2 11 6 NNW 1018,9 0,0
24.06.2018 09:00:00 17,5 10,8 2 1 8 4 NE 1019,6 0,0
24.06.2018 08:00:00 16,3 10,2 0 0 8 4 N 1019,4 -
24.06.2018 07:00:00 13,7 10,7 0 0 4 2 N 1019,7 0,0
24.06.2018 06:00:00 12,6 10,3 0 0 5 3 N 1019,4 0,0
24.06.2018 05:00:00 13,4 11,1 0 0 9 5 N 1018,9 -
24.06.2018 04:00:00 13,9 10,5 0 0 8 4 N 1019,0 0,0
24.06.2018 03:00:00 14,7 11,5 0 0 8 4 N 1019,0 0,0
24.06.2018 02:00:00 15,4 11,2 0 0 5 3 N 1019,4 -
24.06.2018 01:00:00 16,1 11,9 0 0 5 3 N 1019,3 0,0
24.06.2018 00:00:00 17,4 11,4 5 3 9 5 SW 1019,0 0,0
23.06.2018 23:00:00 18,2 11,0 0 0 5 3 N 1018,8 0,0
23.06.2018 22:00:00 20,1 11,6 4 2 13 7 S 1018,5 0,0
23.06.2018 21:00:00 22,3 10,1 11 6 21 11 N 1017,9 0,0
23.06.2018 20:00:00 23,7 9,3 13 7 31 17 N 1017,4 -
23.06.2018 19:00:00 26,1 9,0 18 10 29 16 NNE 1017,1 0,0
23.06.2018 18:00:00 26,4 8,8 18 10 26 14 NNE 1017,3 0,0
23.06.2018 17:00:00 26,2 7,7 11 6 22 12 NNE 1018,0 0,0
23.06.2018 16:00:00 25,3 9,2 15 8 26 14 NNE 1018,5 0,0
23.06.2018 15:00:00 24,5 10,7 5 3 15 8 NNW 1019,2 0,0
23.06.2018 14:00:00 23,2 9,6 4 2 15 8 W 1020,2 -
23.06.2018 13:00:00 21,8 9,0 4 2 15 8 WNW 1020,9 0,0
23.06.2018 12:00:00 20,9 8,2 4 2 16 9 WNW 1021,5 0,0
23.06.2018 11:00:00 20,1 8,4 4 2 15 8 NNE 1022,1 0,0
23.06.2018 10:00:00 18,3 7,7 8 4 16 9 NNE 1022,2 0,0
23.06.2018 09:00:00 17,2 8,1 5 3 16 9 NE 1022,4 0,0
23.06.2018 08:00:00 15,1 8,8 0 0 4 2 N 1022,6 -
23.06.2018 07:00:00 11,9 9,3 0 0 11 6 N 1022,7 0,0
23.06.2018 06:00:00 10,4 8,0 0 0 5 3 N 1022,5 0,0
23.06.2018 05:00:00 11,1 8,1 2 1 5 3 NNE 1022,0 0,0
23.06.2018 04:00:00 11,8 7,5 2 1 5 3 SSW 1021,7 0,0
23.06.2018 03:00:00 13,0 7,2 2 1 13 7 WSW 1021,3 0,0
23.06.2018 02:00:00 13,5 7,3 5 3 9 5 WSW 1021,0 -
23.06.2018 01:00:00 14,5 6,8 2 1 5 3 SW 1021,0 0,0
23.06.2018 00:00:00 14,9 7,2 2 1 5 3 SSW 1020,8 0,0
22.06.2018 23:00:00 16,0 7,0 0 0 9 5 N 1020,4 0,0
22.06.2018 22:00:00 19,0 6,1 4 2 15 8 ENE 1019,4 0,0
22.06.2018 21:00:00 20,4 4,8 8 4 26 14 N 1018,7 0,0
22.06.2018 20:00:00 24,1 4,4 18 10 34 18 NNE 1017,9 -
22.06.2018 19:00:00 25,1 3,1 18 10 35 19 NNE 1017,8 0,0
22.06.2018 18:00:00 25,5 5,6 22 12 42 23 NNE 1017,4 0,0
22.06.2018 17:00:00 26,0 6,6 28 15 44 24 NE 1017,1 0,0
22.06.2018 16:00:00 26,0 9,8 29 16 48 26 NNE 1017,0 0,0
22.06.2018 15:00:00 25,3 10,0 26 14 35 19 NNE 1016,9 0,0
22.06.2018 14:00:00 23,8 11,8 9 5 29 16 WSW 1017,5 -
22.06.2018 13:00:00 22,4 12,1 16 9 29 16 SSW 1017,8 0,0
22.06.2018 12:00:00 19,8 11,3 18 10 28 15 SW 1018,8 0,0
22.06.2018 11:00:00 19,0 11,3 16 9 31 17 SW 1018,8 0,0
22.06.2018 10:00:00 17,4 10,5 15 8 21 11 SW 1018,8 0,0
22.06.2018 09:00:00 17,7 11,3 11 6 21 11 SW 1018,2 0,0
22.06.2018 08:00:00 17,2 11,5 11 6 15 8 WSW 1018,0 -
22.06.2018 07:00:00 17,5 12,4 0 0 8 4 N 1017,9 0,0
22.06.2018 06:00:00 17,6 12,3 5 3 11 6 W 1017,5 0,0
22.06.2018 05:00:00 18,0 13,7 8 4 11 6 WSW 1017,2 -
22.06.2018 04:00:00 17,6 14,7 0 0 5 3 N 1017,2 0,0
22.06.2018 03:00:00 18,3 15,0 0 0 5 3 N 1016,9 0,0
22.06.2018 02:00:00 20,3 14,4 4 2 8 4 SE 1016,9 -
22.06.2018 01:00:00 20,7 14,6 4 2 11 6 WSW 1016,9 0,0
22.06.2018 00:00:00 22,6 13,9 4 2 9 5 E 1016,4 0,0
21.06.2018 23:00:00 23,5 14,5 5 3 13 7 E 1016,2 0,0
21.06.2018 22:00:00 25,1 14,5 8 4 21 11 ENE 1015,1 0,0
21.06.2018 21:00:00 27,2 13,2 9 5 21 11 N 1014,4 0,0
21.06.2018 20:00:00 29,2 14,2 13 7 31 17 N 1013,6 -
21.06.2018 19:00:00 31,1 15,5 9 5 24 13 NNW 1013,2 0,0
21.06.2018 18:00:00 31,8 14,9 13 7 28 15 N 1013,3 0,0
21.06.2018 17:00:00 32,3 13,5 9 5 16 9 NNE 1013,4 0,0
21.06.2018 16:00:00 31,6 15,1 4 2 18 10 E 1013,8 0,0
21.06.2018 15:00:00 31,6 17,9 5 3 21 11 W 1014,1 0,0
21.06.2018 14:00:00 30,6 18,3 8 4 16 9 ENE 1014,8 -
21.06.2018 13:00:00 29,8 17,9 5 3 13 7 NNE 1015,5 0,0
21.06.2018 12:00:00 28,4 17,0 4 2 13 7 NNE 1016,4 0,0
21.06.2018 11:00:00 27,1 18,1 4 2 9 5 NE 1016,5 0,0
21.06.2018 10:00:00 25,1 17,6 4 2 8 4 N 1017,0 0,0
21.06.2018 09:00:00 23,1 17,8 4 2 8 4 N 1017,9 0,0
21.06.2018 08:00:00 21,5 17,5 5 3 5 3 NNE 1018,3 -
21.06.2018 07:00:00 18,7 17,5 0 0 4 2 N 1018,5 0,0
21.06.2018 06:00:00 17,8 16,7 0 0 4 2 N 1018,2 0,0
21.06.2018 05:00:00 18,3 17,1 0 0 5 3 N 1017,9 0,0
21.06.2018 04:00:00 18,6 16,9 0 0 5 3 N 1018,4 0,0
21.06.2018 03:00:00 19,0 17,1 0 0 5 3 N 1018,3 0,0
21.06.2018 02:00:00 19,8 17,8 0 0 4 2 N 1018,1 -
21.06.2018 01:00:00 20,4 17,8 0 0 5 3 N 1018,1 0,0
21.06.2018 00:00:00 21,7 17,9 0 0 5 3 N 1018,0 0,0
20.06.2018 23:00:00 22,7 18,0 0 0 8 4 N 1018,1 0,0
20.06.2018 22:00:00 24,3 19,4 0 0 5 3 N 1017,2 0,0
20.06.2018 21:00:00 27,3 18,9 0 0 5 3 N 1016,1 0,0
20.06.2018 20:00:00 29,9 17,0 4 2 15 8 NE 1015,8 -
20.06.2018 19:00:00 30,0 19,1 11 6 16 9 NNE 1015,7 0,0
20.06.2018 18:00:00 31,7 18,7 11 6 18 10 NNE 1015,4 0,0
20.06.2018 17:00:00 31,7 19,0 11 6 18 10 NNE 1015,8 0,0
20.06.2018 16:00:00 31,3 18,6 8 4 16 9 N 1016,2 0,0
20.06.2018 15:00:00 30,7 18,1 8 4 15 8 NNE 1016,8 0,0
20.06.2018 14:00:00 29,5 17,7 4 2 11 6 NW 1017,5 -
20.06.2018 13:00:00 28,5 17,1 4 2 9 5 W 1018,2 0,0
20.06.2018 12:00:00 27,2 17,7 4 2 13 7 W 1018,8 0,0
20.06.2018 11:00:00 25,2 16,6 8 4 13 7 NNE 1019,4 0,0
20.06.2018 10:00:00 24,4 16,1 5 3 13 7 NE 1019,8 0,0
20.06.2018 09:00:00 22,9 15,7 0 0 8 4 N 1020,2 0,0
20.06.2018 08:00:00 19,9 16,3 5 3 8 4 NNE 1020,6 -
20.06.2018 07:00:00 17,3 16,0 4 2 5 3 NNE 1020,8 0,0
20.06.2018 06:00:00 16,2 15,1 2 1 5 3 NNE 1020,6 0,0
20.06.2018 05:00:00 16,6 15,3 0 0 4 2 N 1020,4 0,0
20.06.2018 04:00:00 17,2 15,7 0 0 5 3 N 1020,3 0,0
20.06.2018 03:00:00 18,0 16,8 2 1 5 3 ENE 1020,1 0,0
20.06.2018 02:00:00 18,2 16,4 0 0 4 2 N 1020,2 -
20.06.2018 01:00:00 18,7 16,7 0 0 4 2 N 1020,1 0,0
20.06.2018 00:00:00 19,5 17,3 0 0 5 3 N 1019,8 0,0
19.06.2018 23:00:00 21,0 17,8 0 0 4 2 N 1019,3 0,0
19.06.2018 22:00:00 22,3 17,4 0 0 11 6 N 1018,6 0,0
19.06.2018 21:00:00 25,5 17,9 4 2 11 6 SW 1018,3 0,0

tt = Température de l'air
td = dewpoint
ff = Vitesse du vent
fx = gusts
dd = Direction du vent
ppp = reduced air pressure
rr = Quantités de précipitations

stations d'obs. à proximité